createdAt,value
2023-02-11T00:02:15.222Z,1.11
2023-02-11T00:04:41.784Z,1.09
2023-02-11T00:07:08.306Z,-0.64
2023-02-11T00:09:37.357Z,0.82
2023-02-11T00:12:04.408Z,1.01
2023-02-11T00:14:30.998Z,1.03
2023-02-11T00:16:57.594Z,1.05
2023-02-11T00:19:24.157Z,1.02
2023-02-11T00:21:50.668Z,1.06
2023-02-11T00:24:17.228Z,0.99
2023-02-11T00:26:45.161Z,1.02
2023-02-11T00:29:11.700Z,1.02
2023-02-11T00:31:38.374Z,1.09
2023-02-11T00:34:04.984Z,1.05
2023-02-11T00:36:31.559Z,1.05
2023-02-11T00:38:58.373Z,1.03
2023-02-11T00:41:25.980Z,-0.03
2023-02-11T00:43:53.965Z,-1.56
2023-02-11T00:46:21.144Z,-2.41
2023-02-11T00:48:47.962Z,0.10
2023-02-11T00:51:14.621Z,0.71
2023-02-11T00:53:41.887Z,0.80
2023-02-11T00:56:08.954Z,0.83
2023-02-11T00:58:36.000Z,0.82
2023-02-11T01:01:04.777Z,0.73
2023-02-11T01:03:31.577Z,-0.64
2023-02-11T01:05:58.143Z,0.53
2023-02-11T01:08:24.845Z,0.67
2023-02-11T01:10:56.504Z,0.73
2023-02-11T01:13:23.903Z,0.77
2023-02-11T01:15:51.017Z,0.81
2023-02-11T01:18:19.364Z,0.78
2023-02-11T01:20:45.965Z,0.78
2023-02-11T01:23:12.500Z,0.76
2023-02-11T01:25:39.070Z,0.67
2023-02-11T01:28:05.716Z,0.75
2023-02-11T01:30:34.235Z,-0.30
2023-02-11T01:33:00.762Z,-1.13
2023-02-11T01:35:28.664Z,-0.06
2023-02-11T01:37:55.207Z,0.27
2023-02-11T01:40:21.857Z,-0.02
2023-02-11T01:42:50.887Z,0.52
2023-02-11T01:45:51.342Z,0.61
2023-02-11T01:48:22.608Z,0.62
2023-02-11T01:50:54.867Z,0.65
2023-02-11T01:53:41.087Z,0.42
2023-02-11T01:56:37.488Z,0.41
2023-02-11T01:59:11.628Z,0.60
2023-02-11T02:01:40.556Z,0.58
2023-02-11T02:04:09.479Z,0.61
2023-02-11T02:06:43.701Z,0.61
2023-02-11T02:09:16.700Z,0.56
2023-02-11T02:11:43.381Z,0.55
2023-02-11T02:14:09.924Z,0.55
2023-02-11T02:16:37.645Z,0.55
2023-02-11T02:19:41.440Z,0.56
2023-02-11T02:22:55.473Z,0.62
2023-02-11T02:25:49.955Z,0.54
2023-02-11T02:28:36.794Z,0.49
2023-02-11T02:31:30.546Z,0.52
2023-02-11T02:34:02.381Z,0.49
2023-02-11T02:36:34.143Z,0.50
2023-02-11T02:39:07.907Z,0.49
2023-02-11T02:41:36.956Z,0.48
2023-02-11T02:44:03.918Z,0.52
2023-02-11T02:46:33.172Z,-1.36
2023-02-11T02:49:01.380Z,0.16
2023-02-11T02:51:51.737Z,0.36
2023-02-11T02:54:47.550Z,0.41
2023-02-11T02:57:28.579Z,0.41
2023-02-11T03:00:08.179Z,0.40
2023-02-11T03:02:40.313Z,0.40
2023-02-11T03:05:16.119Z,0.39
2023-02-11T03:07:48.460Z,0.35
2023-02-11T03:10:19.334Z,0.38
2023-02-11T03:12:48.377Z,0.40
2023-02-11T03:15:17.443Z,0.36
2023-02-11T03:17:49.273Z,0.32
2023-02-11T03:20:20.448Z,0.37
2023-02-11T03:22:50.814Z,-1.22
2023-02-11T03:25:17.788Z,-0.75
2023-02-11T03:27:57.537Z,0.05
2023-02-11T03:30:27.410Z,0.19
2023-02-11T03:32:56.023Z,0.17
2023-02-11T03:35:32.143Z,0.21
2023-02-11T03:38:04.294Z,0.21
2023-02-11T03:40:35.184Z,0.18
2023-02-11T03:43:07.250Z,0.18
2023-02-11T03:45:36.109Z,0.19
2023-02-11T03:48:06.620Z,0.21
2023-02-11T03:50:37.205Z,0.17
2023-02-11T03:53:05.121Z,0.21
2023-02-11T03:55:34.922Z,-0.27
2023-02-11T03:58:01.367Z,-1.81
2023-02-11T04:00:30.984Z,-0.18
2023-02-11T04:02:57.570Z,-4.62
2023-02-11T04:05:24.141Z,-0.65
2023-02-11T04:07:52.064Z,-0.19
2023-02-11T04:10:18.754Z,-0.05
2023-02-11T04:12:45.344Z,-0.04
2023-02-11T04:15:11.884Z,0.00
2023-02-11T04:17:38.643Z,0.01
2023-02-11T04:20:05.951Z,-0.20
2023-02-11T04:22:32.574Z,-0.05
2023-02-11T04:25:00.424Z,-0.03
2023-02-11T04:27:26.969Z,-0.05
2023-02-11T04:29:54.100Z,-0.04
2023-02-11T04:32:20.661Z,-0.01
2023-02-11T04:34:47.504Z,-0.02
2023-02-11T04:37:14.600Z,-0.01
2023-02-11T04:39:41.274Z,-0.09
2023-02-11T04:42:09.140Z,-0.04
2023-02-11T04:44:35.697Z,-4.49
2023-02-11T04:47:02.366Z,-1.36
2023-02-11T04:49:29.096Z,-0.41
2023-02-11T04:51:55.680Z,-0.26
2023-02-11T04:54:22.443Z,-0.22
2023-02-11T04:56:49.672Z,-0.52
2023-02-11T04:59:17.578Z,-0.27
2023-02-11T05:01:44.136Z,-0.21
2023-02-11T05:04:10.756Z,-0.28
2023-02-11T05:06:38.273Z,-0.24
2023-02-11T05:09:04.845Z,-3.12
2023-02-11T05:11:31.498Z,-0.94
2023-02-11T05:13:58.057Z,-0.44
2023-02-11T05:16:25.987Z,-0.35
2023-02-11T05:18:53.702Z,-0.31
2023-02-11T05:21:20.555Z,-0.32
2023-02-11T05:23:47.303Z,-0.30
2023-02-11T05:26:14.374Z,-0.28
2023-02-11T05:28:41.569Z,-0.55
2023-02-11T05:31:08.613Z,-0.34
2023-02-11T05:33:36.706Z,-0.30
2023-02-11T05:36:06.585Z,-1.58
2023-02-11T05:38:33.812Z,-2.76
2023-02-11T05:41:00.796Z,-0.56
2023-02-11T05:43:27.361Z,-0.42
2023-02-11T05:45:54.171Z,-0.43
2023-02-11T05:48:20.949Z,-0.40
2023-02-11T05:50:48.892Z,-0.38
2023-02-11T05:53:15.446Z,-0.39
2023-02-11T05:55:42.214Z,-1.29
2023-02-11T05:58:08.930Z,-0.52
2023-02-11T06:00:35.967Z,-2.05
2023-02-11T06:03:04.328Z,-0.72
2023-02-11T06:05:31.504Z,-0.69
2023-02-11T06:07:59.790Z,-0.54
2023-02-11T06:10:26.649Z,-0.46
2023-02-11T06:12:53.260Z,-0.49
2023-02-11T06:15:20.096Z,-0.46
2023-02-11T06:17:46.627Z,-0.45
2023-02-11T06:20:13.450Z,-0.43
2023-02-11T06:22:40.062Z,-0.44
2023-02-11T06:25:08.321Z,-0.46
2023-02-11T06:27:34.834Z,-0.46
2023-02-11T06:30:01.394Z,-0.47
2023-02-11T06:32:44.026Z,-0.46
2023-02-11T06:35:12.441Z,-0.42
2023-02-11T06:37:39.144Z,-0.46
2023-02-11T06:40:06.604Z,-0.48
2023-02-11T06:42:36.075Z,-0.46
2023-02-11T06:45:02.913Z,-0.76
2023-02-11T06:47:29.460Z,-0.51
2023-02-11T06:49:55.982Z,-0.48
2023-02-11T06:52:22.582Z,-0.50
2023-02-11T06:54:49.112Z,-0.51
2023-02-11T06:57:15.697Z,-0.47
2023-02-11T06:59:43.639Z,-0.51
2023-02-11T07:02:10.802Z,-0.54
2023-02-11T07:04:37.409Z,-0.53
2023-02-11T07:07:03.984Z,-1.90
2023-02-11T07:09:30.593Z,-0.82
2023-02-11T07:11:57.142Z,-0.58
2023-02-11T07:14:23.719Z,-0.53
2023-02-11T07:16:51.752Z,-3.14
2023-02-11T07:19:18.335Z,-2.92
2023-02-11T07:21:44.882Z,-2.70
2023-02-11T07:24:11.657Z,-1.15
2023-02-11T07:26:38.414Z,-0.84
2023-02-11T07:29:05.157Z,-1.03
2023-02-11T07:31:32.327Z,-1.08
2023-02-11T07:34:01.941Z,-0.92
2023-02-11T07:36:30.516Z,-0.78
2023-02-11T07:38:57.075Z,-0.71
2023-02-11T07:41:25.146Z,-1.32
2023-02-11T07:43:52.077Z,-1.19
2023-02-11T07:46:20.500Z,-0.82
2023-02-11T07:48:47.436Z,-0.70
2023-02-11T07:51:17.165Z,-0.66
2023-02-11T07:53:43.995Z,-0.69
2023-02-11T07:56:12.157Z,-0.69
2023-02-11T07:58:38.783Z,-0.68
2023-02-11T08:01:06.953Z,-0.67
2023-02-11T08:03:34.250Z,-1.70
2023-02-11T08:06:04.073Z,-2.36
2023-02-11T08:08:31.765Z,-2.34
2023-02-11T08:10:58.352Z,-1.26
2023-02-11T08:13:26.885Z,-0.89
2023-02-11T08:15:57.645Z,-0.79
2023-02-11T08:18:24.191Z,-0.75
2023-02-11T08:20:50.963Z,-0.72
2023-02-11T08:23:17.641Z,-0.72
2023-02-11T08:25:45.526Z,-0.70
2023-02-11T08:28:12.152Z,-0.92
2023-02-11T08:30:38.794Z,-0.75
2023-02-11T08:33:05.361Z,-0.65
2023-02-11T08:35:33.118Z,-0.65
2023-02-11T08:37:59.652Z,-0.85
2023-02-11T08:40:26.180Z,-1.39
2023-02-11T08:42:54.098Z,-1.18
2023-02-11T08:45:20.680Z,-1.26
2023-02-11T08:47:47.230Z,-0.90
2023-02-11T08:50:13.844Z,-0.77
2023-02-11T08:52:40.409Z,-1.27
2023-02-11T08:55:07.402Z,-0.83
2023-02-11T08:57:33.954Z,-0.70
2023-02-11T09:00:01.956Z,-0.85
2023-02-11T09:02:28.635Z,-0.72
2023-02-11T09:04:55.505Z,-0.64
2023-02-11T09:07:22.048Z,-0.65
2023-02-11T09:09:48.614Z,-0.64
2023-02-11T09:12:15.447Z,-0.62
2023-02-11T09:14:42.959Z,-0.44
2023-02-11T09:17:10.846Z,-0.37
2023-02-11T09:19:37.436Z,-0.24
2023-02-11T09:22:04.000Z,-0.03
2023-02-11T09:24:30.541Z,-0.44
2023-02-11T09:26:57.283Z,-0.51
2023-02-11T09:29:23.887Z,-0.01
2023-02-11T09:31:50.622Z,2.79
2023-02-11T09:34:18.632Z,3.88
2023-02-11T09:36:45.162Z,2.83
2023-02-11T09:39:13.819Z,3.21
2023-02-11T09:42:07.819Z,3.76
2023-02-11T09:44:37.028Z,4.96
2023-02-11T09:47:06.236Z,2.95
2023-02-11T09:49:40.817Z,1.83
2023-02-11T09:52:16.558Z,0.91
2023-02-11T09:54:53.604Z,0.21
2023-02-11T09:57:28.479Z,1.21
2023-02-11T09:59:56.713Z,1.97
2023-02-11T10:02:28.429Z,1.75
2023-02-11T10:05:17.515Z,3.64
2023-02-11T10:07:51.428Z,1.72
2023-02-11T10:10:32.219Z,1.37
2023-02-11T10:13:17.194Z,2.00
2023-02-11T10:15:50.979Z,0.99
2023-02-11T10:18:46.357Z,0.82
2023-02-11T10:21:24.826Z,0.98
2023-02-11T10:23:56.175Z,1.89
2023-02-11T10:26:23.559Z,1.76
2023-02-11T10:28:54.284Z,1.07
2023-02-11T10:31:25.211Z,2.22
2023-02-11T10:33:58.344Z,2.48
2023-02-11T10:36:29.799Z,2.08
2023-02-11T10:38:59.104Z,1.61
2023-02-11T10:41:31.067Z,1.95
2023-02-11T10:43:59.527Z,1.96
2023-02-11T10:46:31.031Z,2.46
2023-02-11T10:48:57.759Z,2.84
2023-02-11T10:51:28.299Z,1.81
2023-02-11T10:54:14.334Z,1.85
2023-02-11T10:56:46.152Z,3.77
2023-02-11T10:59:19.759Z,5.68
2023-02-11T11:01:50.809Z,4.76
2023-02-11T11:04:34.630Z,5.33
2023-02-11T11:07:14.393Z,4.73
2023-02-11T11:09:44.936Z,4.31
2023-02-11T11:12:25.212Z,3.35
2023-02-11T11:14:55.461Z,2.90
2023-02-11T11:17:22.175Z,2.82
2023-02-11T11:19:48.737Z,3.34
2023-02-11T11:22:22.284Z,2.94
2023-02-11T11:24:54.378Z,2.32
2023-02-11T11:27:25.374Z,2.98
2023-02-11T11:29:54.770Z,1.96
2023-02-11T11:32:24.110Z,1.89
2023-02-11T11:34:53.952Z,3.01
2023-02-11T11:37:24.620Z,3.86
2023-02-11T11:39:57.025Z,3.96
2023-02-11T11:42:28.585Z,3.59
2023-02-11T11:44:58.368Z,2.69
2023-02-11T11:47:30.365Z,2.39
2023-02-11T11:50:25.012Z,1.71
2023-02-11T11:53:00.153Z,2.13
2023-02-11T11:55:31.273Z,3.17
2023-02-11T11:57:58.563Z,3.38
2023-02-11T12:00:32.305Z,2.70
2023-02-11T12:03:20.224Z,2.98
2023-02-11T12:05:58.714Z,3.81
2023-02-11T12:08:38.814Z,3.87
2023-02-11T12:11:13.898Z,3.50
2023-02-11T12:13:53.150Z,3.41
2023-02-11T12:16:30.632Z,2.69
2023-02-11T12:19:27.076Z,2.61
2023-02-11T12:22:09.430Z,2.69
2023-02-11T12:24:51.548Z,2.32
2023-02-11T12:27:25.844Z,1.88
2023-02-11T12:30:03.501Z,2.77
2023-02-11T12:32:43.207Z,3.25
2023-02-11T12:35:31.036Z,3.57
2023-02-11T12:38:21.151Z,3.59
2023-02-11T12:41:01.233Z,3.64
2023-02-11T12:43:35.859Z,3.49
2023-02-11T12:46:32.389Z,3.54
2023-02-11T12:49:17.559Z,3.64
2023-02-11T12:51:59.398Z,3.72
2023-02-11T12:54:30.287Z,3.49
2023-02-11T12:57:02.721Z,3.15
2023-02-11T12:59:40.587Z,1.85
2023-02-11T13:02:18.798Z,1.75
2023-02-11T13:04:49.956Z,3.43
2023-02-11T13:07:22.801Z,3.96
2023-02-11T13:09:53.904Z,2.77
2023-02-11T13:12:40.819Z,2.57
2023-02-11T13:15:12.971Z,2.96
2023-02-11T13:17:49.070Z,2.56
2023-02-11T13:20:26.180Z,2.70
2023-02-11T13:22:59.227Z,3.50
2023-02-11T13:25:32.019Z,4.47
2023-02-11T13:28:11.352Z,5.59
2023-02-11T13:30:47.001Z,5.70
2023-02-11T13:33:20.530Z,5.60
2023-02-11T13:36:12.076Z,5.48
2023-02-11T13:38:39.255Z,4.51
2023-02-11T13:41:15.758Z,5.28
2023-02-11T13:43:44.519Z,3.10
2023-02-11T13:46:13.524Z,2.12
2023-02-11T13:48:47.487Z,2.81
2023-02-11T13:51:16.911Z,3.87
2023-02-11T13:53:50.271Z,2.65
2023-02-11T13:56:28.115Z,3.69
2023-02-11T13:58:57.935Z,3.52
2023-02-11T14:02:29.483Z,4.69
2023-02-11T14:05:21.350Z,4.33
2023-02-11T14:08:32.422Z,4.35
2023-02-11T14:11:00.908Z,3.62
2023-02-11T14:13:29.589Z,4.52
2023-02-11T14:16:09.006Z,4.08
2023-02-11T14:18:58.309Z,3.81
2023-02-11T14:21:33.197Z,2.80
2023-02-11T14:24:33.328Z,2.09
2023-02-11T14:27:05.319Z,1.97
2023-02-11T14:29:39.283Z,2.57
2023-02-11T14:32:16.304Z,2.38
2023-02-11T14:34:52.459Z,2.00
2023-02-11T14:37:30.362Z,2.14
2023-02-11T14:40:07.259Z,3.29
2023-02-11T14:42:37.855Z,3.58
2023-02-11T14:45:07.698Z,3.21
2023-02-11T14:47:40.262Z,4.33
2023-02-11T14:50:14.283Z,3.97
2023-02-11T14:52:43.458Z,4.32
2023-02-11T14:55:18.534Z,4.40
2023-02-11T14:57:45.721Z,2.83
2023-02-11T15:00:18.726Z,2.19
2023-02-11T15:02:47.065Z,2.10
2023-02-11T15:05:16.339Z,2.04
2023-02-11T15:07:45.496Z,1.99
2023-02-11T15:10:18.418Z,2.10
2023-02-11T15:12:49.539Z,2.47
2023-02-11T15:15:17.059Z,4.26
2023-02-11T15:17:44.281Z,4.93
2023-02-11T15:20:20.574Z,4.56
2023-02-11T15:22:56.206Z,3.25
2023-02-11T15:25:23.948Z,2.73
2023-02-11T15:27:52.267Z,2.96
2023-02-11T15:30:30.729Z,3.72
2023-02-11T15:32:59.996Z,3.53
2023-02-11T15:35:30.494Z,4.10
2023-02-11T15:37:58.510Z,4.12
2023-02-11T15:40:27.882Z,4.16
2023-02-11T15:42:58.495Z,4.11
2023-02-11T15:45:29.481Z,3.72
2023-02-11T15:48:00.097Z,3.62
2023-02-11T15:50:30.865Z,2.54
2023-02-11T15:53:00.371Z,2.29
2023-02-11T15:55:28.879Z,2.59
2023-02-11T15:57:57.550Z,3.73
2023-02-11T16:00:28.925Z,3.13
2023-02-11T16:02:55.944Z,2.67
2023-02-11T16:05:29.275Z,2.61
2023-02-11T16:07:56.940Z,3.11
2023-02-11T16:10:26.462Z,3.14
2023-02-11T16:12:58.013Z,2.83
2023-02-11T16:16:02.336Z,2.82
2023-02-11T16:18:38.604Z,2.73
2023-02-11T16:21:15.795Z,2.73
2023-02-11T16:23:43.760Z,2.37
2023-02-11T16:26:19.641Z,2.20
2023-02-11T16:28:46.649Z,2.22
2023-02-11T16:31:13.642Z,2.49
2023-02-11T16:33:40.221Z,2.35
2023-02-11T16:36:13.324Z,2.35
2023-02-11T16:38:40.055Z,2.29
2023-02-11T16:41:06.653Z,2.30
2023-02-11T16:43:33.208Z,2.26
2023-02-11T16:45:59.752Z,2.20
2023-02-11T16:48:26.440Z,2.14
2023-02-11T16:50:53.746Z,2.21
2023-02-11T16:53:25.072Z,2.18
2023-02-11T16:55:52.937Z,2.12
2023-02-11T16:58:19.537Z,2.17
2023-02-11T17:00:47.369Z,1.82
2023-02-11T17:03:18.175Z,2.08
2023-02-11T17:05:55.305Z,2.11
2023-02-11T17:08:23.724Z,2.19
2023-02-11T17:10:50.654Z,2.16
2023-02-11T17:13:17.365Z,2.11
2023-02-11T17:15:43.950Z,2.14
2023-02-11T17:18:13.165Z,2.11
2023-02-11T17:20:39.873Z,2.18
2023-02-11T17:23:06.441Z,2.09
2023-02-11T17:25:34.343Z,2.10
2023-02-11T17:28:00.928Z,2.14
2023-02-11T17:30:27.560Z,2.15
2023-02-11T17:32:54.147Z,1.84
2023-02-11T17:35:21.043Z,1.87
2023-02-11T17:37:47.674Z,1.74
2023-02-11T17:40:14.626Z,2.07
2023-02-11T17:42:42.905Z,1.66
2023-02-11T17:45:10.185Z,1.98
2023-02-11T17:47:36.744Z,1.44
2023-02-11T17:50:04.041Z,1.68
2023-02-11T17:52:30.664Z,1.06
2023-02-11T17:54:58.062Z,1.20
2023-02-11T17:57:24.630Z,1.86
2023-02-11T17:59:52.570Z,2.03
2023-02-11T18:02:19.355Z,1.45
2023-02-11T18:04:46.075Z,1.94
2023-02-11T18:07:12.678Z,2.01
2023-02-11T18:09:40.251Z,2.04
2023-02-11T18:12:07.364Z,1.14
2023-02-11T18:14:34.010Z,1.45
2023-02-11T18:17:01.977Z,1.95
2023-02-11T18:19:30.561Z,2.05
2023-02-11T18:21:59.721Z,1.44
2023-02-11T18:24:27.509Z,0.78
2023-02-11T18:26:54.103Z,1.61
2023-02-11T18:29:20.704Z,1.91
2023-02-11T18:31:47.277Z,1.97
2023-02-11T18:34:15.862Z,2.01
2023-02-11T18:36:42.674Z,2.02
2023-02-11T18:39:09.356Z,2.06
2023-02-11T18:41:35.966Z,1.93
2023-02-11T18:44:03.325Z,2.00
2023-02-11T18:46:31.160Z,2.06
2023-02-11T18:48:57.748Z,2.08
2023-02-11T18:51:25.799Z,2.03
2023-02-11T18:53:52.876Z,1.53
2023-02-11T18:56:21.708Z,1.88
2023-02-11T18:58:49.047Z,1.98
2023-02-11T19:01:17.832Z,2.01
2023-02-11T19:03:45.079Z,1.58
2023-02-11T19:06:15.659Z,1.94
2023-02-11T19:08:43.782Z,2.03
2023-02-11T19:11:10.411Z,2.08
2023-02-11T19:13:36.937Z,2.04
2023-02-11T19:16:08.169Z,2.09
2023-02-11T19:18:36.263Z,2.02
2023-02-11T19:21:07.177Z,2.05
2023-02-11T19:23:34.200Z,2.04
2023-02-11T19:26:04.479Z,2.04
2023-02-11T19:28:31.187Z,2.07
2023-02-11T19:30:58.178Z,2.07
2023-02-11T19:33:24.822Z,1.20
2023-02-11T19:35:51.600Z,0.58
2023-02-11T19:38:19.079Z,0.89
2023-02-11T19:40:45.609Z,1.77
2023-02-11T19:43:13.487Z,1.96
2023-02-11T19:45:40.049Z,2.02
2023-02-11T19:48:06.565Z,2.07
2023-02-11T19:50:33.519Z,2.08
2023-02-11T19:53:02.368Z,2.07
2023-02-11T19:55:29.003Z,2.07
2023-02-11T19:57:55.548Z,2.10
2023-02-11T20:00:23.740Z,2.13
2023-02-11T20:02:50.406Z,2.15
2023-02-11T20:05:17.104Z,2.16
2023-02-11T20:07:43.620Z,2.15
2023-02-11T20:10:10.483Z,2.14
2023-02-11T20:12:37.251Z,2.14
2023-02-11T20:15:04.328Z,1.41
2023-02-11T20:17:32.204Z,1.13
2023-02-11T20:19:58.842Z,2.01
2023-02-11T20:22:25.455Z,2.11
2023-02-11T20:24:52.017Z,2.13
2023-02-11T20:27:20.113Z,2.15
2023-02-11T20:29:46.871Z,2.15
2023-02-11T20:32:14.661Z,2.17
2023-02-11T20:34:42.565Z,2.18
2023-02-11T20:37:10.357Z,2.20
2023-02-11T20:39:40.811Z,2.17
2023-02-11T20:42:09.647Z,2.19
2023-02-11T20:44:36.695Z,2.18
2023-02-11T20:47:03.381Z,2.20
2023-02-11T20:49:30.413Z,2.19
2023-02-11T20:51:58.465Z,2.18
2023-02-11T20:54:25.776Z,2.18
2023-02-11T20:56:58.105Z,2.16
2023-02-11T20:59:25.339Z,2.20
2023-02-11T21:01:55.101Z,1.83
2023-02-11T21:04:24.287Z,2.13
2023-02-11T21:06:53.256Z,0.45
2023-02-11T21:09:23.387Z,1.57
2023-02-11T21:11:51.694Z,2.01
2023-02-11T21:14:19.208Z,2.03
2023-02-11T21:16:46.179Z,2.12
2023-02-11T21:19:13.124Z,2.15
2023-02-11T21:21:39.928Z,2.16
2023-02-11T21:24:07.696Z,2.16
2023-02-11T21:26:36.552Z,2.19
2023-02-11T21:29:03.308Z,2.19
2023-02-11T21:31:32.293Z,2.18
2023-02-11T21:33:59.552Z,2.17
2023-02-11T21:36:27.571Z,2.16
2023-02-11T21:38:54.623Z,2.17
2023-02-11T21:41:22.456Z,2.18
2023-02-11T21:43:50.812Z,2.17
2023-02-11T21:46:18.205Z,2.19
2023-02-11T21:48:44.972Z,2.20
2023-02-11T21:51:14.116Z,2.19
2023-02-11T21:53:40.711Z,2.22
2023-02-11T21:56:10.011Z,1.09
2023-02-11T21:58:36.840Z,1.99
2023-02-11T22:01:12.153Z,2.14
2023-02-11T22:03:38.774Z,2.17
2023-02-11T22:06:07.446Z,2.17
2023-02-11T22:08:34.035Z,2.18
2023-02-11T22:11:02.591Z,2.22
2023-02-11T22:13:29.210Z,2.22
2023-02-11T22:15:59.567Z,1.97
2023-02-11T22:18:27.900Z,0.28
2023-02-11T22:20:58.571Z,1.42
2023-02-11T22:23:25.109Z,1.97
2023-02-11T22:25:51.637Z,2.09
2023-02-11T22:28:18.272Z,2.14
2023-02-11T22:30:44.873Z,2.16
2023-02-11T22:33:11.415Z,2.16
2023-02-11T22:35:39.251Z,2.16
2023-02-11T22:38:05.864Z,1.63
2023-02-11T22:40:32.393Z,1.30
2023-02-11T22:42:58.990Z,1.92
2023-02-11T22:45:25.583Z,2.15
2023-02-11T22:47:54.082Z,2.20
2023-02-11T22:50:20.613Z,2.21
2023-02-11T22:52:48.489Z,2.20
2023-02-11T22:55:15.255Z,2.19
2023-02-11T22:57:41.857Z,2.21
2023-02-11T23:00:11.616Z,2.19
2023-02-11T23:02:38.059Z,2.20
2023-02-11T23:05:04.742Z,2.20
2023-02-11T23:07:31.296Z,2.20
2023-02-11T23:09:59.281Z,1.42
2023-02-11T23:12:26.944Z,2.06
2023-02-11T23:14:53.504Z,2.18
2023-02-11T23:17:20.036Z,2.21
2023-02-11T23:19:46.783Z,2.20
2023-02-11T23:22:13.314Z,2.21
2023-02-11T23:24:39.857Z,2.29
2023-02-11T23:27:07.784Z,2.27
2023-02-11T23:29:34.328Z,2.25
2023-02-11T23:32:00.902Z,2.00
2023-02-11T23:34:27.506Z,2.19
2023-02-11T23:36:54.775Z,2.23
2023-02-11T23:39:21.449Z,2.23
2023-02-11T23:41:48.051Z,2.23
2023-02-11T23:44:15.981Z,2.25
2023-02-11T23:46:42.594Z,2.27
2023-02-11T23:49:09.262Z,2.25
2023-02-11T23:51:35.791Z,2.23
2023-02-11T23:54:03.144Z,2.25
2023-02-11T23:56:29.692Z,2.24
2023-02-11T23:58:59.395Z,2.25
